Terminal Aerodrome Forecast
Issued by NWS Quad Cities IA IL

Home | Current Version | Previous Version | Text Only | Print | Product List | Glossary On
Versions: 1 2 3 4 5 6 7 8 9 10 11 12 13 14 15 16 17 18 19 20 21 22 23 24 25
000
FTUS43 KDVN 251800 AAC
TAFMLI
TAF AMD
KMLI 251803Z 2518/2618 20018G27KT P6SM VCTS SCT040CB BKN100
      TEMPO 2518/2519 3SM TSRA BR BKN035CB
     FM251900 19017G23KT P6SM SCT012 SCT040
     FM252200 18013G17KT P6SM VCTS SCT040CB
     FM260200 14005KT P6SM SCT040
     FM260900 17006KT 6SM BR BKN060
     FM261300 20005KT 6SM BR BKN060=

USA.gov is the U.S. government's official web portal to all federal, state and local government web resources and services.